CheckWX is a tool to help pilots better visualize weather data.  It is not intended as a substitute for an official pre-flight weather briefing.

07:50:56 UTC

KCMX TAF
Houghton County Memorial Airport
Hancock, Michigan, USA
KCMX 200520Z 2006/2106 00000KT P6SM SKC FM201400 06006KT P6SM FEW200 FM210100 VRB03KT P6SM FEW200

Jun-20@
06:00 UTC

Jun-20 @ 06:00 UTC

Jun-20@
14:00 UTC

Jun-20 @ 14:00 UTC

KCMX 200520Z 2006/2106 00000KT P6SM SKC
Cloud Levels
  • Clear skies

Jun-20@
14:00 UTC

Jun-20 @ 14:00 UTC

Jun-21@
01:00 UTC

Jun-21 @ 01:00 UTC

FM201400 06006KT P6SM FEW200

From

From Standard forecast or significant change

Wind
  • 060° at 6 KTS
Cloud Levels
  • Few at 20,000' AGL

Jun-21@
01:00 UTC

Jun-21 @ 01:00 UTC

Jun-21@
06:00 UTC

Jun-21 @ 06:00 UTC

FM210100 VRB03KT P6SM FEW200

From

From Standard forecast or significant change

Wind
  • Variable at 3 KTS
Cloud Levels
  • Few at 20,000' AGL